sensor_id;sensor_type;location;lat;lon;timestamp;temperature;humidity
5041;DHT22;2539;52.568;13.364;2023-04-23T00:00:08;16.00;98.60
5041;DHT22;2539;52.568;13.364;2023-04-23T00:02:39;15.90;98.50
5041;DHT22;2539;52.568;13.364;2023-04-23T00:05:07;15.90;99.00
5041;DHT22;2539;52.568;13.364;2023-04-23T00:07:34;15.80;98.60
5041;DHT22;2539;52.568;13.364;2023-04-23T00:10:01;16.30;99.00
5041;DHT22;2539;52.568;13.364;2023-04-23T00:12:33;15.80;99.00
5041;DHT22;2539;52.568;13.364;2023-04-23T00:15:00;15.70;99.60
5041;DHT22;2539;52.568;13.364;2023-04-23T00:17:27;15.70;99.50
5041;DHT22;2539;52.568;13.364;2023-04-23T00:19:53;15.60;99.90
5041;DHT22;2539;52.568;13.364;2023-04-23T00:22:19;15.70;99.90
5041;DHT22;2539;52.568;13.364;2023-04-23T00:24:47;15.60;99.90
5041;DHT22;2539;52.568;13.364;2023-04-23T00:27:18;15.70;99.90
5041;DHT22;2539;52.568;13.364;2023-04-23T00:29:46;15.60;99.90
5041;DHT22;2539;52.568;13.364;2023-04-23T00:32:14;15.60;99.90
5041;DHT22;2539;52.568;13.364;2023-04-23T00:34:41;15.60;99.90
5041;DHT22;2539;52.568;13.364;2023-04-23T00:37:06;15.60;99.90
5041;DHT22;2539;52.568;13.364;2023-04-23T00:39:32;15.60;99.90
5041;DHT22;2539;52.568;13.364;2023-04-23T00:41:58;15.70;99.90
5041;DHT22;2539;52.568;13.364;2023-04-23T00:44:26;15.70;99.90
5041;DHT22;2539;52.568;13.364;2023-04-23T00:46:52;15.70;99.90
5041;DHT22;2539;52.568;13.364;2023-04-23T00:49:20;15.70;99.90
5041;DHT22;2539;52.568;13.364;2023-04-23T00:51:47;15.70;99.90
5041;DHT22;2539;52.568;13.364;2023-04-23T00:54:13;15.70;99.90
5041;DHT22;2539;52.568;13.364;2023-04-23T00:56:40;15.70;99.90
5041;DHT22;2539;52.568;13.364;2023-04-23T00:59:06;15.70;99.90
5041;DHT22;2539;52.568;13.364;2023-04-23T01:01:32;15.70;99.90
5041;DHT22;2539;52.568;13.364;2023-04-23T01:03:59;15.70;99.90
5041;DHT22;2539;52.568;13.364;2023-04-23T01:06:25;15.50;99.90
5041;DHT22;2539;52.568;13.364;2023-04-23T01:08:53;15.50;99.90
5041;DHT22;2539;52.568;13.364;2023-04-23T01:11:20;15.60;99.90
5041;DHT22;2539;52.568;13.364;2023-04-23T01:13:47;15.50;99.90
5041;DHT22;2539;52.568;13.364;2023-04-23T01:16:13;15.40;99.90
5041;DHT22;2539;52.568;13.364;2023-04-23T01:18:40;15.40;99.90
5041;DHT22;2539;52.568;13.364;2023-04-23T01:21:07;15.50;99.90
5041;DHT22;2539;52.568;13.364;2023-04-23T01:23:35;15.40;99.90
5041;DHT22;2539;52.568;13.364;2023-04-23T01:26:01;15.30;99.90
5041;DHT22;2539;52.568;13.364;2023-04-23T01:28:29;15.30;99.90
5041;DHT22;2539;52.568;13.364;2023-04-23T01:30:55;15.30;99.90
5041;DHT22;2539;52.568;13.364;2023-04-23T01:33:23;15.20;99.90
5041;DHT22;2539;52.568;13.364;2023-04-23T01:35:49;15.30;99.90
5041;DHT22;2539;52.568;13.364;2023-04-23T01:38:16;15.30;99.90
5041;DHT22;2539;52.568;13.364;2023-04-23T01:40:42;15.30;99.90
5041;DHT22;2539;52.568;13.364;2023-04-23T01:45:35;15.30;99.90
5041;DHT22;2539;52.568;13.364;2023-04-23T01:48:02;15.30;99.90
5041;DHT22;2539;52.568;13.364;2023-04-23T01:50:28;15.30;99.90
5041;DHT22;2539;52.568;13.364;2023-04-23T01:52:55;15.30;99.90
5041;DHT22;2539;52.568;13.364;2023-04-23T01:55:21;15.20;99.90
5041;DHT22;2539;52.568;13.364;2023-04-23T01:57:48;15.20;99.90
5041;DHT22;2539;52.568;13.364;2023-04-23T02:00:16;15.10;99.90
5041;DHT22;2539;52.568;13.364;2023-04-23T02:02:43;15.00;99.90
5041;DHT22;2539;52.568;13.364;2023-04-23T02:05:14;14.90;99.90
5041;DHT22;2539;52.568;13.364;2023-04-23T02:07:41;14.80;99.90
5041;DHT22;2539;52.568;13.364;2023-04-23T02:10:09;14.70;99.90
5041;DHT22;2539;52.568;13.364;2023-04-23T02:12:36;14.60;99.90
5041;DHT22;2539;52.568;13.364;2023-04-23T02:15:05;14.50;99.90
5041;DHT22;2539;52.568;13.364;2023-04-23T02:17:32;14.30;99.90
5041;DHT22;2539;52.568;13.364;2023-04-23T02:19:58;14.10;99.90
5041;DHT22;2539;52.568;13.364;2023-04-23T02:22:24;14.00;99.90
5041;DHT22;2539;52.568;13.364;2023-04-23T02:24:52;13.90;99.90
5041;DHT22;2539;52.568;13.364;2023-04-23T02:27:18;13.80;99.90
5041;DHT22;2539;52.568;13.364;2023-04-23T02:29:45;13.70;99.90
5041;DHT22;2539;52.568;13.364;2023-04-23T02:32:11;13.70;99.90
5041;DHT22;2539;52.568;13.364;2023-04-23T02:34:38;13.70;99.90
5041;DHT22;2539;52.568;13.364;2023-04-23T02:37:04;13.70;99.90
5041;DHT22;2539;52.568;13.364;2023-04-23T02:39:31;13.80;99.90
5041;DHT22;2539;52.568;13.364;2023-04-23T02:41:58;13.80;99.90
5041;DHT22;2539;52.568;13.364;2023-04-23T02:44:24;13.70;99.90
5041;DHT22;2539;52.568;13.364;2023-04-23T02:46:51;13.80;99.90
5041;DHT22;2539;52.568;13.364;2023-04-23T02:49:18;13.80;99.90
5041;DHT22;2539;52.568;13.364;2023-04-23T02:51:47;13.80;99.90
5041;DHT22;2539;52.568;13.364;2023-04-23T02:54:15;13.80;99.90
5041;DHT22;2539;52.568;13.364;2023-04-23T02:56:41;13.70;99.90
5041;DHT22;2539;52.568;13.364;2023-04-23T02:59:08;13.80;99.90
5041;DHT22;2539;52.568;13.364;2023-04-23T03:01:34;14.00;99.90
5041;DHT22;2539;52.568;13.364;2023-04-23T03:04:01;13.80;99.90
5041;DHT22;2539;52.568;13.364;2023-04-23T03:06:28;13.80;99.90
5041;DHT22;2539;52.568;13.364;2023-04-23T03:08:56;13.80;99.90
5041;DHT22;2539;52.568;13.364;2023-04-23T03:13:49;13.90;99.90
5041;DHT22;2539;52.568;13.364;2023-04-23T03:16:16;13.90;99.90
5041;DHT22;2539;52.568;13.364;2023-04-23T03:18:42;13.90;99.90
5041;DHT22;2539;52.568;13.364;2023-04-23T03:21:08;13.90;99.90
5041;DHT22;2539;52.568;13.364;2023-04-23T03:23:35;13.90;99.90
5041;DHT22;2539;52.568;13.364;2023-04-23T03:26:01;13.20;99.90
5041;DHT22;2539;52.568;13.364;2023-04-23T03:28:27;13.70;99.90
5041;DHT22;2539;52.568;13.364;2023-04-23T03:30:53;13.80;99.90
5041;DHT22;2539;52.568;13.364;2023-04-23T03:33:20;13.80;99.90
5041;DHT22;2539;52.568;13.364;2023-04-23T03:35:46;13.90;99.90
5041;DHT22;2539;52.568;13.364;2023-04-23T03:40:38;13.90;99.90
5041;DHT22;2539;52.568;13.364;2023-04-23T03:43:04;13.90;99.90
5041;DHT22;2539;52.568;13.364;2023-04-23T03:45:30;14.00;99.90
5041;DHT22;2539;52.568;13.364;2023-04-23T03:47:55;14.00;99.90
5041;DHT22;2539;52.568;13.364;2023-04-23T03:50:22;14.10;99.90
5041;DHT22;2539;52.568;13.364;2023-04-23T03:52:50;14.00;99.90
5041;DHT22;2539;52.568;13.364;2023-04-23T03:55:21;14.00;99.90
5041;DHT22;2539;52.568;13.364;2023-04-23T03:57:47;14.00;99.90
5041;DHT22;2539;52.568;13.364;2023-04-23T04:00:14;14.00;99.90
5041;DHT22;2539;52.568;13.364;2023-04-23T04:02:40;14.00;99.90
5041;DHT22;2539;52.568;13.364;2023-04-23T04:05:07;14.10;99.90
5041;DHT22;2539;52.568;13.364;2023-04-23T04:07:34;15.00;99.90
5041;DHT22;2539;52.568;13.364;2023-04-23T04:10:03;14.10;99.90
5041;DHT22;2539;52.568;13.364;2023-04-23T04:12:30;14.20;99.90
5041;DHT22;2539;52.568;13.364;2023-04-23T04:14:55;14.20;99.90
5041;DHT22;2539;52.568;13.364;2023-04-23T04:17:21;14.20;99.90
5041;DHT22;2539;52.568;13.364;2023-04-23T04:19:46;14.20;99.90
5041;DHT22;2539;52.568;13.364;2023-04-23T04:22:13;14.30;99.90
5041;DHT22;2539;52.568;13.364;2023-04-23T04:24:39;14.30;99.90
5041;DHT22;2539;52.568;13.364;2023-04-23T04:27:07;14.20;99.90
5041;DHT22;2539;52.568;13.364;2023-04-23T04:29:34;14.20;99.90
5041;DHT22;2539;52.568;13.364;2023-04-23T04:32:00;14.20;99.90
5041;DHT22;2539;52.568;13.364;2023-04-23T04:34:27;14.20;99.90
5041;DHT22;2539;52.568;13.364;2023-04-23T04:36:54;14.30;99.90
5041;DHT22;2539;52.568;13.364;2023-04-23T04:39:20;14.30;99.90
5041;DHT22;2539;52.568;13.364;2023-04-23T04:41:47;14.20;99.90
5041;DHT22;2539;52.568;13.364;2023-04-23T04:44:13;14.40;99.90
5041;DHT22;2539;52.568;13.364;2023-04-23T04:46:41;14.60;99.90
5041;DHT22;2539;52.568;13.364;2023-04-23T04:49:08;14.50;99.90
5041;DHT22;2539;52.568;13.364;2023-04-23T04:51:36;14.60;99.90
5041;DHT22;2539;52.568;13.364;2023-04-23T04:54:03;14.70;99.90
5041;DHT22;2539;52.568;13.364;2023-04-23T04:56:29;14.70;99.90
5041;DHT22;2539;52.568;13.364;2023-04-23T04:58:55;14.70;99.90
5041;DHT22;2539;52.568;13.364;2023-04-23T05:01:23;14.70;99.90
5041;DHT22;2539;52.568;13.364;2023-04-23T05:03:51;14.60;99.90
5041;DHT22;2539;52.568;13.364;2023-04-23T05:06:18;13.90;99.90
5041;DHT22;2539;52.568;13.364;2023-04-23T05:08:47;14.50;99.90
5041;DHT22;2539;52.568;13.364;2023-04-23T05:11:19;14.50;99.90
5041;DHT22;2539;52.568;13.364;2023-04-23T05:13:46;14.50;99.90
5041;DHT22;2539;52.568;13.364;2023-04-23T05:16:12;14.40;99.90
5041;DHT22;2539;52.568;13.364;2023-04-23T05:18:38;14.40;99.90
5041;DHT22;2539;52.568;13.364;2023-04-23T05:21:04;14.30;99.90
5041;DHT22;2539;52.568;13.364;2023-04-23T05:23:53;14.30;99.90
5041;DHT22;2539;52.568;13.364;2023-04-23T05:26:20;14.40;99.90
5041;DHT22;2539;52.568;13.364;2023-04-23T05:28:46;14.50;99.90
5041;DHT22;2539;52.568;13.364;2023-04-23T05:31:12;14.40;99.90
5041;DHT22;2539;52.568;13.364;2023-04-23T05:33:39;14.80;99.90
5041;DHT22;2539;52.568;13.364;2023-04-23T05:36:05;14.70;99.90
5041;DHT22;2539;52.568;13.364;2023-04-23T05:38:31;15.20;99.90
5041;DHT22;2539;52.568;13.364;2023-04-23T05:40:58;15.40;99.90
5041;DHT22;2539;52.568;13.364;2023-04-23T05:43:24;14.80;99.90
5041;DHT22;2539;52.568;13.364;2023-04-23T05:45:50;15.40;99.90
5041;DHT22;2539;52.568;13.364;2023-04-23T05:48:17;15.40;99.90
5041;DHT22;2539;52.568;13.364;2023-04-23T05:50:43;15.40;99.90
5041;DHT22;2539;52.568;13.364;2023-04-23T05:53:10;15.30;99.90
5041;DHT22;2539;52.568;13.364;2023-04-23T05:55:36;15.30;99.90
5041;DHT22;2539;52.568;13.364;2023-04-23T05:58:02;15.20;99.90
5041;DHT22;2539;52.568;13.364;2023-04-23T06:00:30;15.10;99.90
5041;DHT22;2539;52.568;13.364;2023-04-23T06:02:56;15.10;99.90
5041;DHT22;2539;52.568;13.364;2023-04-23T06:05:22;15.00;99.90
5041;DHT22;2539;52.568;13.364;2023-04-23T06:07:48;15.10;99.90
5041;DHT22;2539;52.568;13.364;2023-04-23T06:10:15;15.10;99.90
5041;DHT22;2539;52.568;13.364;2023-04-23T06:12:41;15.10;99.90
5041;DHT22;2539;52.568;13.364;2023-04-23T06:15:08;15.00;99.90
5041;DHT22;2539;52.568;13.364;2023-04-23T06:17:35;15.20;99.90
5041;DHT22;2539;52.568;13.364;2023-04-23T06:20:01;15.30;99.90
5041;DHT22;2539;52.568;13.364;2023-04-23T06:22:28;15.40;99.90
5041;DHT22;2539;52.568;13.364;2023-04-23T06:24:54;15.50;99.90
5041;DHT22;2539;52.568;13.364;2023-04-23T06:27:20;15.60;99.90
5041;DHT22;2539;52.568;13.364;2023-04-23T06:29:46;15.70;99.90
5041;DHT22;2539;52.568;13.364;2023-04-23T06:32:13;15.80;99.90
5041;DHT22;2539;52.568;13.364;2023-04-23T06:34:39;15.90;99.90
5041;DHT22;2539;52.568;13.364;2023-04-23T06:37:05;16.00;99.90
5041;DHT22;2539;52.568;13.364;2023-04-23T06:39:31;16.00;99.90
5041;DHT22;2539;52.568;13.364;2023-04-23T06:41:58;16.10;99.90
5041;DHT22;2539;52.568;13.364;2023-04-23T06:44:24;16.10;99.90
5041;DHT22;2539;52.568;13.364;2023-04-23T06:46:50;16.20;99.90
5041;DHT22;2539;52.568;13.364;2023-04-23T06:49:17;16.20;99.90
5041;DHT22;2539;52.568;13.364;2023-04-23T06:51:43;16.30;99.90
5041;DHT22;2539;52.568;13.364;2023-04-23T06:54:10;16.20;99.90
5041;DHT22;2539;52.568;13.364;2023-04-23T06:56:36;16.20;99.90
5041;DHT22;2539;52.568;13.364;2023-04-23T06:59:02;16.10;99.90
5041;DHT22;2539;52.568;13.364;2023-04-23T07:01:29;16.10;99.90
5041;DHT22;2539;52.568;13.364;2023-04-23T07:03:55;16.00;99.90
5041;DHT22;2539;52.568;13.364;2023-04-23T07:06:21;15.90;99.90
5041;DHT22;2539;52.568;13.364;2023-04-23T07:08:48;15.70;99.90
5041;DHT22;2539;52.568;13.364;2023-04-23T07:11:14;15.50;99.90
5041;DHT22;2539;52.568;13.364;2023-04-23T07:13:41;15.50;99.90
5041;DHT22;2539;52.568;13.364;2023-04-23T07:16:07;15.40;99.90
5041;DHT22;2539;52.568;13.364;2023-04-23T07:18:34;15.20;99.90
5041;DHT22;2539;52.568;13.364;2023-04-23T07:21:00;15.10;99.90
5041;DHT22;2539;52.568;13.364;2023-04-23T07:23:26;15.00;99.90
5041;DHT22;2539;52.568;13.364;2023-04-23T07:25:52;14.90;99.90
5041;DHT22;2539;52.568;13.364;2023-04-23T07:30:45;14.80;99.90
5041;DHT22;2539;52.568;13.364;2023-04-23T07:33:12;14.80;99.90
5041;DHT22;2539;52.568;13.364;2023-04-23T07:35:38;14.80;99.90
5041;DHT22;2539;52.568;13.364;2023-04-23T07:38:05;14.90;99.90
5041;DHT22;2539;52.568;13.364;2023-04-23T07:40:31;15.00;99.90
5041;DHT22;2539;52.568;13.364;2023-04-23T07:42:57;15.10;99.90
5041;DHT22;2539;52.568;13.364;2023-04-23T07:45:24;15.20;99.90
5041;DHT22;2539;52.568;13.364;2023-04-23T07:47:51;15.30;99.90
5041;DHT22;2539;52.568;13.364;2023-04-23T07:50:17;15.20;99.90
5041;DHT22;2539;52.568;13.364;2023-04-23T07:52:43;15.20;99.90
5041;DHT22;2539;52.568;13.364;2023-04-23T07:55:10;15.10;99.90
5041;DHT22;2539;52.568;13.364;2023-04-23T07:57:36;15.20;99.90
5041;DHT22;2539;52.568;13.364;2023-04-23T08:00:04;15.20;99.90
5041;DHT22;2539;52.568;13.364;2023-04-23T08:02:30;15.20;99.90
5041;DHT22;2539;52.568;13.364;2023-04-23T08:04:56;15.30;99.90
5041;DHT22;2539;52.568;13.364;2023-04-23T08:07:23;15.10;99.90
5041;DHT22;2539;52.568;13.364;2023-04-23T08:09:49;15.10;99.90
5041;DHT22;2539;52.568;13.364;2023-04-23T08:12:15;15.10;99.90
5041;DHT22;2539;52.568;13.364;2023-04-23T08:14:43;15.10;99.90
5041;DHT22;2539;52.568;13.364;2023-04-23T08:17:09;15.10;99.90
5041;DHT22;2539;52.568;13.364;2023-04-23T08:19:35;15.10;99.90
5041;DHT22;2539;52.568;13.364;2023-04-23T08:22:01;15.10;99.90
5041;DHT22;2539;52.568;13.364;2023-04-23T08:24:28;15.20;99.90
5041;DHT22;2539;52.568;13.364;2023-04-23T08:26:54;15.30;99.90
5041;DHT22;2539;52.568;13.364;2023-04-23T08:29:20;15.50;99.90
5041;DHT22;2539;52.568;13.364;2023-04-23T08:31:46;15.40;99.90
5041;DHT22;2539;52.568;13.364;2023-04-23T08:34:13;15.60;99.90
5041;DHT22;2539;52.568;13.364;2023-04-23T08:36:40;15.70;99.90
5041;DHT22;2539;52.568;13.364;2023-04-23T08:39:06;15.70;99.90
5041;DHT22;2539;52.568;13.364;2023-04-23T08:41:37;15.80;99.90
5041;DHT22;2539;52.568;13.364;2023-04-23T08:44:06;15.80;99.90
5041;DHT22;2539;52.568;13.364;2023-04-23T08:46:41;15.90;99.90
5041;DHT22;2539;52.568;13.364;2023-04-23T08:49:12;16.10;99.90
5041;DHT22;2539;52.568;13.364;2023-04-23T08:51:53;16.30;99.90
5041;DHT22;2539;52.568;13.364;2023-04-23T08:54:27;16.30;99.90
5041;DHT22;2539;52.568;13.364;2023-04-23T08:56:57;16.40;99.90
5041;DHT22;2539;52.568;13.364;2023-04-23T08:59:29;16.50;99.90
5041;DHT22;2539;52.568;13.364;2023-04-23T09:01:57;16.60;99.90
5041;DHT22;2539;52.568;13.364;2023-04-23T09:04:26;16.20;99.90
5041;DHT22;2539;52.568;13.364;2023-04-23T09:06:54;16.10;99.90
5041;DHT22;2539;52.568;13.364;2023-04-23T09:09:22;15.80;99.90
5041;DHT22;2539;52.568;13.364;2023-04-23T09:11:49;15.60;99.90
5041;DHT22;2539;52.568;13.364;2023-04-23T09:14:15;15.30;99.90
5041;DHT22;2539;52.568;13.364;2023-04-23T09:16:42;15.20;99.90
5041;DHT22;2539;52.568;13.364;2023-04-23T09:19:10;15.10;99.90
5041;DHT22;2539;52.568;13.364;2023-04-23T09:21:38;15.00;99.90
5041;DHT22;2539;52.568;13.364;2023-04-23T09:24:07;14.80;99.90
5041;DHT22;2539;52.568;13.364;2023-04-23T09:26:45;14.90;99.90
5041;DHT22;2539;52.568;13.364;2023-04-23T09:29:17;14.80;99.90
5041;DHT22;2539;52.568;13.364;2023-04-23T09:31:45;14.70;99.90
5041;DHT22;2539;52.568;13.364;2023-04-23T09:34:16;14.60;99.90
5041;DHT22;2539;52.568;13.364;2023-04-23T09:36:44;14.10;99.90
5041;DHT22;2539;52.568;13.364;2023-04-23T09:39:13;13.50;99.90
5041;DHT22;2539;52.568;13.364;2023-04-23T09:41:39;14.00;99.90
5041;DHT22;2539;52.568;13.364;2023-04-23T09:44:06;13.80;99.90
5041;DHT22;2539;52.568;13.364;2023-04-23T09:46:39;13.90;99.90
5041;DHT22;2539;52.568;13.364;2023-04-23T09:49:08;13.90;99.90
5041;DHT22;2539;52.568;13.364;2023-04-23T09:54:02;13.80;99.90
5041;DHT22;2539;52.568;13.364;2023-04-23T09:56:30;13.70;99.90
5041;DHT22;2539;52.568;13.364;2023-04-23T09:58:57;13.60;99.90
5041;DHT22;2539;52.568;13.364;2023-04-23T10:01:28;13.90;99.90
5041;DHT22;2539;52.568;13.364;2023-04-23T10:03:55;13.90;99.90
5041;DHT22;2539;52.568;13.364;2023-04-23T10:06:28;13.90;99.90
5041;DHT22;2539;52.568;13.364;2023-04-23T10:08:56;14.10;99.90
5041;DHT22;2539;52.568;13.364;2023-04-23T10:11:24;14.10;99.90
5041;DHT22;2539;52.568;13.364;2023-04-23T10:13:52;14.00;99.90
5041;DHT22;2539;52.568;13.364;2023-04-23T10:16:20;13.70;99.90
5041;DHT22;2539;52.568;13.364;2023-04-23T10:18:47;13.90;99.90
5041;DHT22;2539;52.568;13.364;2023-04-23T10:21:14;13.90;99.90
5041;DHT22;2539;52.568;13.364;2023-04-23T10:23:43;14.30;99.90
5041;DHT22;2539;52.568;13.364;2023-04-23T10:26:14;14.70;99.90
5041;DHT22;2539;52.568;13.364;2023-04-23T10:28:46;14.90;99.90
5041;DHT22;2539;52.568;13.364;2023-04-23T10:31:13;14.60;99.90
5041;DHT22;2539;52.568;13.364;2023-04-23T10:33:40;14.60;99.90
5041;DHT22;2539;52.568;13.364;2023-04-23T10:36:08;15.20;99.90
5041;DHT22;2539;52.568;13.364;2023-04-23T10:38:35;15.10;99.90
5041;DHT22;2539;52.568;13.364;2023-04-23T10:41:02;15.50;99.90
5041;DHT22;2539;52.568;13.364;2023-04-23T10:43:29;15.30;99.90
5041;DHT22;2539;52.568;13.364;2023-04-23T10:45:56;15.30;99.90
5041;DHT22;2539;52.568;13.364;2023-04-23T10:48:22;15.90;99.90
5041;DHT22;2539;52.568;13.364;2023-04-23T10:50:56;16.00;99.90
5041;DHT22;2539;52.568;13.364;2023-04-23T10:53:24;16.30;99.90
5041;DHT22;2539;52.568;13.364;2023-04-23T10:56:04;16.70;99.90
5041;DHT22;2539;52.568;13.364;2023-04-23T10:58:48;16.40;99.90
5041;DHT22;2539;52.568;13.364;2023-04-23T11:01:16;17.10;99.90
5041;DHT22;2539;52.568;13.364;2023-04-23T11:03:43;17.10;99.90
5041;DHT22;2539;52.568;13.364;2023-04-23T11:14:47;15.90;99.90
5041;DHT22;2539;52.568;13.364;2023-04-23T11:17:14;15.40;99.90
5041;DHT22;2539;52.568;13.364;2023-04-23T11:19:41;15.10;99.90
5041;DHT22;2539;52.568;13.364;2023-04-23T11:22:33;15.60;99.90
5041;DHT22;2539;52.568;13.364;2023-04-23T11:25:01;15.60;99.90
5041;DHT22;2539;52.568;13.364;2023-04-23T11:27:29;16.20;99.90
5041;DHT22;2539;52.568;13.364;2023-04-23T11:29:56;16.60;99.90
5041;DHT22;2539;52.568;13.364;2023-04-23T11:32:22;16.70;99.90
5041;DHT22;2539;52.568;13.364;2023-04-23T11:34:49;16.50;99.90
5041;DHT22;2539;52.568;13.364;2023-04-23T11:37:17;16.70;99.90
5041;DHT22;2539;52.568;13.364;2023-04-23T11:39:44;16.80;99.90
5041;DHT22;2539;52.568;13.364;2023-04-23T11:42:13;15.60;99.90
5041;DHT22;2539;52.568;13.364;2023-04-23T11:44:41;15.70;99.90
5041;DHT22;2539;52.568;13.364;2023-04-23T11:47:10;15.50;99.90
5041;DHT22;2539;52.568;13.364;2023-04-23T11:49:37;16.10;99.90
5041;DHT22;2539;52.568;13.364;2023-04-23T11:52:04;16.80;99.90
5041;DHT22;2539;52.568;13.364;2023-04-23T11:54:30;17.50;99.90
5041;DHT22;2539;52.568;13.364;2023-04-23T11:56:57;17.70;99.90
5041;DHT22;2539;52.568;13.364;2023-04-23T11:59:24;17.30;99.90
5041;DHT22;2539;52.568;13.364;2023-04-23T12:01:54;17.60;99.90
5041;DHT22;2539;52.568;13.364;2023-04-23T12:04:22;18.40;99.90
5041;DHT22;2539;52.568;13.364;2023-04-23T12:06:50;17.60;99.90
5041;DHT22;2539;52.568;13.364;2023-04-23T12:09:18;17.40;99.90
5041;DHT22;2539;52.568;13.364;2023-04-23T12:11:46;16.80;99.90
5041;DHT22;2539;52.568;13.364;2023-04-23T12:14:13;17.00;99.90
5041;DHT22;2539;52.568;13.364;2023-04-23T12:16:43;17.40;99.90
5041;DHT22;2539;52.568;13.364;2023-04-23T12:19:14;17.90;99.90
5041;DHT22;2539;52.568;13.364;2023-04-23T12:21:52;17.60;99.90
5041;DHT22;2539;52.568;13.364;2023-04-23T12:24:25;17.50;99.90
5041;DHT22;2539;52.568;13.364;2023-04-23T12:26:53;18.20;99.90
5041;DHT22;2539;52.568;13.364;2023-04-23T12:29:23;18.20;99.90
5041;DHT22;2539;52.568;13.364;2023-04-23T12:31:50;19.00;99.90
5041;DHT22;2539;52.568;13.364;2023-04-23T12:34:18;19.30;99.90
5041;DHT22;2539;52.568;13.364;2023-04-23T12:36:47;19.60;99.90
5041;DHT22;2539;52.568;13.364;2023-04-23T12:39:31;19.70;99.90
5041;DHT22;2539;52.568;13.364;2023-04-23T12:44:30;19.20;99.90
5041;DHT22;2539;52.568;13.364;2023-04-23T12:46:58;19.70;99.90
5041;DHT22;2539;52.568;13.364;2023-04-23T12:49:27;19.60;99.90
5041;DHT22;2539;52.568;13.364;2023-04-23T12:51:54;19.10;99.90
5041;DHT22;2539;52.568;13.364;2023-04-23T12:54:24;18.60;99.90
5041;DHT22;2539;52.568;13.364;2023-04-23T12:56:50;17.30;99.90
5041;DHT22;2539;52.568;13.364;2023-04-23T12:59:17;17.30;99.90
5041;DHT22;2539;52.568;13.364;2023-04-23T13:01:43;17.60;99.90
5041;DHT22;2539;52.568;13.364;2023-04-23T13:04:09;17.90;99.90
5041;DHT22;2539;52.568;13.364;2023-04-23T13:06:35;18.00;99.90
5041;DHT22;2539;52.568;13.364;2023-04-23T13:09:02;17.30;99.90
5041;DHT22;2539;52.568;13.364;2023-04-23T13:11:31;17.00;99.90
5041;DHT22;2539;52.568;13.364;2023-04-23T13:13:57;17.00;99.90
5041;DHT22;2539;52.568;13.364;2023-04-23T13:16:24;16.90;99.90
5041;DHT22;2539;52.568;13.364;2023-04-23T13:18:50;17.40;99.90
5041;DHT22;2539;52.568;13.364;2023-04-23T13:21:17;17.10;99.90
5041;DHT22;2539;52.568;13.364;2023-04-23T13:23:44;17.20;99.90
5041;DHT22;2539;52.568;13.364;2023-04-23T13:26:11;17.50;99.90
5041;DHT22;2539;52.568;13.364;2023-04-23T13:28:37;17.90;99.90
5041;DHT22;2539;52.568;13.364;2023-04-23T13:31:04;18.20;99.90
5041;DHT22;2539;52.568;13.364;2023-04-23T13:33:32;17.80;99.90
5041;DHT22;2539;52.568;13.364;2023-04-23T13:36:00;17.20;99.90
5041;DHT22;2539;52.568;13.364;2023-04-23T13:38:27;17.20;99.90
5041;DHT22;2539;52.568;13.364;2023-04-23T13:40:53;17.30;99.90
5041;DHT22;2539;52.568;13.364;2023-04-23T13:43:20;17.50;99.90
5041;DHT22;2539;52.568;13.364;2023-04-23T13:45:46;17.50;99.90
5041;DHT22;2539;52.568;13.364;2023-04-23T13:48:14;16.60;99.90
5041;DHT22;2539;52.568;13.364;2023-04-23T13:50:41;16.60;99.90
5041;DHT22;2539;52.568;13.364;2023-04-23T13:53:08;16.70;99.90
5041;DHT22;2539;52.568;13.364;2023-04-23T13:55:35;16.90;99.90
5041;DHT22;2539;52.568;13.364;2023-04-23T13:58:05;17.00;99.90
5041;DHT22;2539;52.568;13.364;2023-04-23T14:00:32;16.70;99.90
5041;DHT22;2539;52.568;13.364;2023-04-23T14:02:58;16.80;99.90
5041;DHT22;2539;52.568;13.364;2023-04-23T14:05:24;17.50;99.90
5041;DHT22;2539;52.568;13.364;2023-04-23T14:07:50;17.50;99.90
5041;DHT22;2539;52.568;13.364;2023-04-23T14:10:16;17.90;99.90
5041;DHT22;2539;52.568;13.364;2023-04-23T14:12:44;17.90;99.90
5041;DHT22;2539;52.568;13.364;2023-04-23T14:15:10;17.70;99.90
5041;DHT22;2539;52.568;13.364;2023-04-23T14:17:38;17.70;99.90
5041;DHT22;2539;52.568;13.364;2023-04-23T14:20:06;18.10;99.90
5041;DHT22;2539;52.568;13.364;2023-04-23T14:22:32;18.20;99.90
5041;DHT22;2539;52.568;13.364;2023-04-23T14:25:14;17.20;99.90
5041;DHT22;2539;52.568;13.364;2023-04-23T14:27:49;17.70;99.90
5041;DHT22;2539;52.568;13.364;2023-04-23T14:30:18;19.30;99.90
5041;DHT22;2539;52.568;13.364;2023-04-23T14:32:57;17.90;99.90
5041;DHT22;2539;52.568;13.364;2023-04-23T14:42:57;18.00;99.90
5041;DHT22;2539;52.568;13.364;2023-04-23T14:45:23;17.80;99.90
5041;DHT22;2539;52.568;13.364;2023-04-23T14:47:50;17.40;99.90
5041;DHT22;2539;52.568;13.364;2023-04-23T14:50:16;17.40;99.90
5041;DHT22;2539;52.568;13.364;2023-04-23T14:52:47;17.60;99.90
5041;DHT22;2539;52.568;13.364;2023-04-23T14:55:13;17.50;99.90
5041;DHT22;2539;52.568;13.364;2023-04-23T14:57:39;17.50;99.90
5041;DHT22;2539;52.568;13.364;2023-04-23T15:00:06;18.10;99.90
5041;DHT22;2539;52.568;13.364;2023-04-23T15:02:33;18.80;99.90
5041;DHT22;2539;52.568;13.364;2023-04-23T15:05:00;18.90;99.90
5041;DHT22;2539;52.568;13.364;2023-04-23T15:07:30;19.40;99.90
5041;DHT22;2539;52.568;13.364;2023-04-23T15:09:58;18.90;99.90
5041;DHT22;2539;52.568;13.364;2023-04-23T15:15:02;19.00;99.90
5041;DHT22;2539;52.568;13.364;2023-04-23T15:17:29;20.10;99.20
5041;DHT22;2539;52.568;13.364;2023-04-23T15:19:56;20.50;96.00
5041;DHT22;2539;52.568;13.364;2023-04-23T15:22:25;20.30;94.60
5041;DHT22;2539;52.568;13.364;2023-04-23T15:24:51;20.40;93.10
5041;DHT22;2539;52.568;13.364;2023-04-23T15:27:18;21.10;91.90
5041;DHT22;2539;52.568;13.364;2023-04-23T15:29:44;22.00;92.70
5041;DHT22;2539;52.568;13.364;2023-04-23T15:32:10;21.80;89.40
5041;DHT22;2539;52.568;13.364;2023-04-23T15:34:37;21.90;85.50
5041;DHT22;2539;52.568;13.364;2023-04-23T15:37:03;21.50;85.50
5041;DHT22;2539;52.568;13.364;2023-04-23T15:39:29;21.40;85.30
5041;DHT22;2539;52.568;13.364;2023-04-23T15:41:55;21.80;84.70
5041;DHT22;2539;52.568;13.364;2023-04-23T15:44:22;21.00;86.30
5041;DHT22;2539;52.568;13.364;2023-04-23T15:46:50;20.90;86.50
5041;DHT22;2539;52.568;13.364;2023-04-23T15:49:16;20.70;88.70
5041;DHT22;2539;52.568;13.364;2023-04-23T15:51:42;21.50;87.50
5041;DHT22;2539;52.568;13.364;2023-04-23T15:54:10;20.70;86.50
5041;DHT22;2539;52.568;13.364;2023-04-23T15:56:36;20.20;86.50
5041;DHT22;2539;52.568;13.364;2023-04-23T15:59:02;20.10;88.60
5041;DHT22;2539;52.568;13.364;2023-04-23T16:01:29;19.30;90.20
5041;DHT22;2539;52.568;13.364;2023-04-23T16:03:55;19.00;90.90
5041;DHT22;2539;52.568;13.364;2023-04-23T16:06:22;18.80;91.90
5041;DHT22;2539;52.568;13.364;2023-04-23T16:08:48;18.60;93.10
5041;DHT22;2539;52.568;13.364;2023-04-23T16:11:14;18.80;93.50
5041;DHT22;2539;52.568;13.364;2023-04-23T16:13:41;19.10;94.20
5041;DHT22;2539;52.568;13.364;2023-04-23T16:16:07;19.50;94.60
5041;DHT22;2539;52.568;13.364;2023-04-23T16:18:34;20.10;94.10